sensor_id;sensor_type;location;lat;lon;timestamp;temperature;humidity
50556;DHT22;36508;52.512;13.450;2023-05-08T00:01:35;11.00;99.90
50556;DHT22;36508;52.512;13.450;2023-05-08T00:04:01;10.90;99.90
50556;DHT22;36508;52.512;13.450;2023-05-08T00:06:26;10.90;99.90
50556;DHT22;36508;52.512;13.450;2023-05-08T00:08:53;10.80;99.90
50556;DHT22;36508;52.512;13.450;2023-05-08T00:11:19;10.80;99.90
50556;DHT22;36508;52.512;13.450;2023-05-08T00:13:45;10.70;99.90
50556;DHT22;36508;52.512;13.450;2023-05-08T00:16:10;10.70;99.90
50556;DHT22;36508;52.512;13.450;2023-05-08T00:18:37;10.50;99.90
50556;DHT22;36508;52.512;13.450;2023-05-08T00:21:03;10.50;99.90
50556;DHT22;36508;52.512;13.450;2023-05-08T00:23:29;10.50;99.90
50556;DHT22;36508;52.512;13.450;2023-05-08T00:25:56;10.50;99.90
50556;DHT22;36508;52.512;13.450;2023-05-08T00:28:22;10.50;99.90
50556;DHT22;36508;52.512;13.450;2023-05-08T00:30:47;10.50;99.90
50556;DHT22;36508;52.512;13.450;2023-05-08T00:33:13;10.20;99.90
50556;DHT22;36508;52.512;13.450;2023-05-08T00:35:39;10.30;99.90
50556;DHT22;36508;52.512;13.450;2023-05-08T00:38:06;10.20;99.90
50556;DHT22;36508;52.512;13.450;2023-05-08T00:40:32;10.20;99.90
50556;DHT22;36508;52.512;13.450;2023-05-08T00:43:01;10.20;99.90
50556;DHT22;36508;52.512;13.450;2023-05-08T00:45:32;10.20;99.90
50556;DHT22;36508;52.512;13.450;2023-05-08T00:47:59;10.10;99.90
50556;DHT22;36508;52.512;13.450;2023-05-08T00:50:25;10.10;99.90
50556;DHT22;36508;52.512;13.450;2023-05-08T00:52:51;10.10;99.90
50556;DHT22;36508;52.512;13.450;2023-05-08T00:55:18;10.10;99.90
50556;DHT22;36508;52.512;13.450;2023-05-08T00:57:46;10.00;99.90
50556;DHT22;36508;52.512;13.450;2023-05-08T01:00:15;10.00;99.90
50556;DHT22;36508;52.512;13.450;2023-05-08T01:02:41;10.00;99.90
50556;DHT22;36508;52.512;13.450;2023-05-08T01:05:07;10.00;99.90
50556;DHT22;36508;52.512;13.450;2023-05-08T01:07:33;10.00;99.90
50556;DHT22;36508;52.512;13.450;2023-05-08T01:09:58;10.00;99.90
50556;DHT22;36508;52.512;13.450;2023-05-08T01:15:13;9.90;99.90
50556;DHT22;36508;52.512;13.450;2023-05-08T01:18:15;10.00;99.90
50556;DHT22;36508;52.512;13.450;2023-05-08T01:20:48;10.00;99.90
50556;DHT22;36508;52.512;13.450;2023-05-08T01:26:27;10.00;99.90
50556;DHT22;36508;52.512;13.450;2023-05-08T01:34:32;9.90;99.90
50556;DHT22;36508;52.512;13.450;2023-05-08T01:37:11;9.90;99.90
50556;DHT22;36508;52.512;13.450;2023-05-08T01:44:59;9.80;99.90
50556;DHT22;36508;52.512;13.450;2023-05-08T01:47:28;9.90;99.90
50556;DHT22;36508;52.512;13.450;2023-05-08T01:50:17;9.90;99.90
50556;DHT22;36508;52.512;13.450;2023-05-08T01:52:48;9.90;99.90
50556;DHT22;36508;52.512;13.450;2023-05-08T01:55:23;9.80;99.90
50556;DHT22;36508;52.512;13.450;2023-05-08T01:57:53;9.80;99.90
50556;DHT22;36508;52.512;13.450;2023-05-08T02:00:21;9.80;99.90
50556;DHT22;36508;52.512;13.450;2023-05-08T02:02:49;9.70;99.90
50556;DHT22;36508;52.512;13.450;2023-05-08T02:05:16;9.70;99.90
50556;DHT22;36508;52.512;13.450;2023-05-08T02:07:43;9.70;99.90
50556;DHT22;36508;52.512;13.450;2023-05-08T02:10:11;9.60;99.90
50556;DHT22;36508;52.512;13.450;2023-05-08T02:12:37;9.60;99.90
50556;DHT22;36508;52.512;13.450;2023-05-08T02:15:06;9.60;99.90
50556;DHT22;36508;52.512;13.450;2023-05-08T02:17:35;9.60;99.90
50556;DHT22;36508;52.512;13.450;2023-05-08T02:20:02;9.60;99.90
50556;DHT22;36508;52.512;13.450;2023-05-08T02:22:30;9.50;99.90
50556;DHT22;36508;52.512;13.450;2023-05-08T02:24:57;9.50;99.90
50556;DHT22;36508;52.512;13.450;2023-05-08T02:27:25;9.50;99.90
50556;DHT22;36508;52.512;13.450;2023-05-08T02:29:52;9.40;99.90
50556;DHT22;36508;52.512;13.450;2023-05-08T02:32:19;9.30;99.90
50556;DHT22;36508;52.512;13.450;2023-05-08T02:34:48;9.20;99.90
50556;DHT22;36508;52.512;13.450;2023-05-08T02:37:15;9.30;99.90
50556;DHT22;36508;52.512;13.450;2023-05-08T02:39:42;9.20;99.90
50556;DHT22;36508;52.512;13.450;2023-05-08T02:42:08;9.20;99.90
50556;DHT22;36508;52.512;13.450;2023-05-08T02:44:34;9.30;99.90
50556;DHT22;36508;52.512;13.450;2023-05-08T02:47:22;9.20;99.90
50556;DHT22;36508;52.512;13.450;2023-05-08T02:50:08;9.20;99.90
50556;DHT22;36508;52.512;13.450;2023-05-08T02:52:46;9.10;99.90
50556;DHT22;36508;52.512;13.450;2023-05-08T02:55:38;9.00;99.90
50556;DHT22;36508;52.512;13.450;2023-05-08T03:00:58;9.00;99.90
50556;DHT22;36508;52.512;13.450;2023-05-08T03:03:45;9.00;99.90
50556;DHT22;36508;52.512;13.450;2023-05-08T03:06:17;9.00;99.90
50556;DHT22;36508;52.512;13.450;2023-05-08T03:08:44;9.00;99.90
50556;DHT22;36508;52.512;13.450;2023-05-08T03:11:15;9.00;99.90
50556;DHT22;36508;52.512;13.450;2023-05-08T03:13:42;9.00;99.90
50556;DHT22;36508;52.512;13.450;2023-05-08T03:16:15;8.80;99.90
50556;DHT22;36508;52.512;13.450;2023-05-08T03:18:54;8.70;99.90
50556;DHT22;36508;52.512;13.450;2023-05-08T03:21:22;8.60;99.90
50556;DHT22;36508;52.512;13.450;2023-05-08T03:23:52;8.60;99.90
50556;DHT22;36508;52.512;13.450;2023-05-08T03:26:18;8.60;99.90
50556;DHT22;36508;52.512;13.450;2023-05-08T03:28:47;8.70;99.90
50556;DHT22;36508;52.512;13.450;2023-05-08T03:31:18;8.80;99.90
50556;DHT22;36508;52.512;13.450;2023-05-08T03:33:50;8.60;99.90
50556;DHT22;36508;52.512;13.450;2023-05-08T03:36:17;8.60;99.90
50556;DHT22;36508;52.512;13.450;2023-05-08T03:38:43;8.60;99.90
50556;DHT22;36508;52.512;13.450;2023-05-08T03:41:09;8.70;99.90
50556;DHT22;36508;52.512;13.450;2023-05-08T03:43:36;8.40;99.90
50556;DHT22;36508;52.512;13.450;2023-05-08T03:46:04;8.50;99.90
50556;DHT22;36508;52.512;13.450;2023-05-08T03:48:32;8.50;99.90
50556;DHT22;36508;52.512;13.450;2023-05-08T03:51:01;8.40;99.90
50556;DHT22;36508;52.512;13.450;2023-05-08T03:53:29;8.20;99.90
50556;DHT22;36508;52.512;13.450;2023-05-08T03:55:59;8.30;99.90
50556;DHT22;36508;52.512;13.450;2023-05-08T04:03:52;8.50;99.90
50556;DHT22;36508;52.512;13.450;2023-05-08T04:06:29;8.50;99.90
50556;DHT22;36508;52.512;13.450;2023-05-08T04:14:53;8.60;99.90
50556;DHT22;36508;52.512;13.450;2023-05-08T04:17:46;8.60;99.90
50556;DHT22;36508;52.512;13.450;2023-05-08T04:20:16;8.70;99.90
50556;DHT22;36508;52.512;13.450;2023-05-08T04:22:44;8.80;99.90
50556;DHT22;36508;52.512;13.450;2023-05-08T04:25:11;8.70;99.90
50556;DHT22;36508;52.512;13.450;2023-05-08T04:27:39;8.70;99.90
50556;DHT22;36508;52.512;13.450;2023-05-08T04:30:06;8.60;99.90
50556;DHT22;36508;52.512;13.450;2023-05-08T04:32:33;8.70;99.90
50556;DHT22;36508;52.512;13.450;2023-05-08T04:34:59;8.70;99.90
50556;DHT22;36508;52.512;13.450;2023-05-08T04:37:27;8.70;99.90
50556;DHT22;36508;52.512;13.450;2023-05-08T04:39:53;8.70;99.90
50556;DHT22;36508;52.512;13.450;2023-05-08T04:42:19;8.70;99.90
50556;DHT22;36508;52.512;13.450;2023-05-08T04:44:45;8.70;99.90
50556;DHT22;36508;52.512;13.450;2023-05-08T04:47:12;8.80;99.90
50556;DHT22;36508;52.512;13.450;2023-05-08T04:49:38;8.80;99.90
50556;DHT22;36508;52.512;13.450;2023-05-08T04:52:03;8.80;99.90
50556;DHT22;36508;52.512;13.450;2023-05-08T04:54:30;8.80;99.90
50556;DHT22;36508;52.512;13.450;2023-05-08T04:56:55;8.80;99.90
50556;DHT22;36508;52.512;13.450;2023-05-08T04:59:21;8.80;99.90
50556;DHT22;36508;52.512;13.450;2023-05-08T05:01:46;8.80;99.90
50556;DHT22;36508;52.512;13.450;2023-05-08T05:04:12;8.90;99.90
50556;DHT22;36508;52.512;13.450;2023-05-08T05:06:38;8.90;99.90
50556;DHT22;36508;52.512;13.450;2023-05-08T05:09:03;8.90;99.90
50556;DHT22;36508;52.512;13.450;2023-05-08T05:11:29;9.00;99.90
50556;DHT22;36508;52.512;13.450;2023-05-08T05:13:55;9.00;99.90
50556;DHT22;36508;52.512;13.450;2023-05-08T05:16:21;9.10;99.90
50556;DHT22;36508;52.512;13.450;2023-05-08T05:18:46;9.00;99.90
50556;DHT22;36508;52.512;13.450;2023-05-08T05:21:12;9.10;99.90
50556;DHT22;36508;52.512;13.450;2023-05-08T05:23:38;9.00;99.90
50556;DHT22;36508;52.512;13.450;2023-05-08T05:26:03;9.10;99.90
50556;DHT22;36508;52.512;13.450;2023-05-08T05:28:29;9.20;99.90
50556;DHT22;36508;52.512;13.450;2023-05-08T05:30:55;9.20;99.90
50556;DHT22;36508;52.512;13.450;2023-05-08T05:33:20;9.20;99.90
50556;DHT22;36508;52.512;13.450;2023-05-08T05:35:46;9.20;99.90
50556;DHT22;36508;52.512;13.450;2023-05-08T05:38:12;9.30;99.90
50556;DHT22;36508;52.512;13.450;2023-05-08T05:40:37;9.40;99.90
50556;DHT22;36508;52.512;13.450;2023-05-08T05:43:03;9.40;99.90
50556;DHT22;36508;52.512;13.450;2023-05-08T05:45:28;9.40;99.90
50556;DHT22;36508;52.512;13.450;2023-05-08T05:47:54;9.40;99.90
50556;DHT22;36508;52.512;13.450;2023-05-08T05:50:20;9.40;99.90
50556;DHT22;36508;52.512;13.450;2023-05-08T05:52:46;9.40;99.90
50556;DHT22;36508;52.512;13.450;2023-05-08T05:55:12;9.40;99.90
50556;DHT22;36508;52.512;13.450;2023-05-08T05:57:38;9.20;99.90
50556;DHT22;36508;52.512;13.450;2023-05-08T06:00:05;9.30;99.90
50556;DHT22;36508;52.512;13.450;2023-05-08T06:02:31;9.40;99.90
50556;DHT22;36508;52.512;13.450;2023-05-08T06:04:59;9.50;99.90
50556;DHT22;36508;52.512;13.450;2023-05-08T06:07:24;9.50;99.90
50556;DHT22;36508;52.512;13.450;2023-05-08T06:09:50;9.60;99.90
50556;DHT22;36508;52.512;13.450;2023-05-08T06:12:17;9.70;99.90
50556;DHT22;36508;52.512;13.450;2023-05-08T06:14:43;9.80;99.90
50556;DHT22;36508;52.512;13.450;2023-05-08T06:17:09;9.80;99.90
50556;DHT22;36508;52.512;13.450;2023-05-08T06:19:34;9.70;99.90
50556;DHT22;36508;52.512;13.450;2023-05-08T06:22:01;9.70;99.90
50556;DHT22;36508;52.512;13.450;2023-05-08T06:24:27;9.70;99.90
50556;DHT22;36508;52.512;13.450;2023-05-08T06:26:52;9.90;99.90
50556;DHT22;36508;52.512;13.450;2023-05-08T06:29:18;9.90;99.90
50556;DHT22;36508;52.512;13.450;2023-05-08T06:31:44;10.10;99.90
50556;DHT22;36508;52.512;13.450;2023-05-08T06:34:10;10.10;99.90
50556;DHT22;36508;52.512;13.450;2023-05-08T06:36:35;10.10;99.90
50556;DHT22;36508;52.512;13.450;2023-05-08T06:39:03;10.20;99.90
50556;DHT22;36508;52.512;13.450;2023-05-08T06:41:30;10.20;99.90
50556;DHT22;36508;52.512;13.450;2023-05-08T06:43:55;10.20;99.90
50556;DHT22;36508;52.512;13.450;2023-05-08T06:46:21;10.30;99.90
50556;DHT22;36508;52.512;13.450;2023-05-08T06:48:47;10.40;99.90
50556;DHT22;36508;52.512;13.450;2023-05-08T06:51:12;10.50;99.90
50556;DHT22;36508;52.512;13.450;2023-05-08T06:53:38;10.50;99.90
50556;DHT22;36508;52.512;13.450;2023-05-08T06:56:04;10.50;99.90
50556;DHT22;36508;52.512;13.450;2023-05-08T06:58:30;10.60;99.90
50556;DHT22;36508;52.512;13.450;2023-05-08T07:00:58;10.60;99.90
50556;DHT22;36508;52.512;13.450;2023-05-08T07:03:24;10.70;99.90
50556;DHT22;36508;52.512;13.450;2023-05-08T07:05:50;10.80;99.90
50556;DHT22;36508;52.512;13.450;2023-05-08T07:08:16;10.80;99.90
50556;DHT22;36508;52.512;13.450;2023-05-08T07:10:41;10.80;99.90
50556;DHT22;36508;52.512;13.450;2023-05-08T07:13:07;10.80;99.90
50556;DHT22;36508;52.512;13.450;2023-05-08T07:15:32;11.00;99.90
50556;DHT22;36508;52.512;13.450;2023-05-08T07:17:58;11.10;99.90
50556;DHT22;36508;52.512;13.450;2023-05-08T07:20:24;11.20;99.90
50556;DHT22;36508;52.512;13.450;2023-05-08T07:22:49;11.20;99.90
50556;DHT22;36508;52.512;13.450;2023-05-08T07:25:15;11.30;99.90
50556;DHT22;36508;52.512;13.450;2023-05-08T07:27:41;11.40;99.90
50556;DHT22;36508;52.512;13.450;2023-05-08T07:30:07;11.50;99.90
50556;DHT22;36508;52.512;13.450;2023-05-08T07:32:33;11.60;99.90
50556;DHT22;36508;52.512;13.450;2023-05-08T07:34:58;11.50;99.90
50556;DHT22;36508;52.512;13.450;2023-05-08T07:37:24;11.60;99.90
50556;DHT22;36508;52.512;13.450;2023-05-08T07:39:50;11.70;99.90
50556;DHT22;36508;52.512;13.450;2023-05-08T07:42:15;11.70;99.90
50556;DHT22;36508;52.512;13.450;2023-05-08T07:44:42;11.80;99.90
50556;DHT22;36508;52.512;13.450;2023-05-08T07:47:08;11.80;99.90
50556;DHT22;36508;52.512;13.450;2023-05-08T07:49:34;11.80;99.90
50556;DHT22;36508;52.512;13.450;2023-05-08T07:51:59;11.80;99.90
50556;DHT22;36508;52.512;13.450;2023-05-08T07:54:25;11.90;99.90
50556;DHT22;36508;52.512;13.450;2023-05-08T07:56:51;12.00;99.90
50556;DHT22;36508;52.512;13.450;2023-05-08T07:59:16;12.10;99.90
50556;DHT22;36508;52.512;13.450;2023-05-08T08:01:42;12.20;99.90
50556;DHT22;36508;52.512;13.450;2023-05-08T08:04:12;12.20;99.90
50556;DHT22;36508;52.512;13.450;2023-05-08T08:06:38;12.20;99.90
50556;DHT22;36508;52.512;13.450;2023-05-08T08:09:04;12.30;99.90
50556;DHT22;36508;52.512;13.450;2023-05-08T08:11:30;12.40;99.90
50556;DHT22;36508;52.512;13.450;2023-05-08T08:13:56;12.60;99.90
50556;DHT22;36508;52.512;13.450;2023-05-08T08:16:22;12.60;99.90
50556;DHT22;36508;52.512;13.450;2023-05-08T08:18:47;12.70;99.90
50556;DHT22;36508;52.512;13.450;2023-05-08T08:21:13;12.70;99.90
50556;DHT22;36508;52.512;13.450;2023-05-08T08:23:38;12.70;99.90
50556;DHT22;36508;52.512;13.450;2023-05-08T08:26:04;12.80;99.90
50556;DHT22;36508;52.512;13.450;2023-05-08T08:28:30;13.00;99.90
50556;DHT22;36508;52.512;13.450;2023-05-08T08:30:56;13.00;99.90
50556;DHT22;36508;52.512;13.450;2023-05-08T08:33:22;13.20;99.90
50556;DHT22;36508;52.512;13.450;2023-05-08T08:35:48;13.20;99.90
50556;DHT22;36508;52.512;13.450;2023-05-08T08:38:15;13.20;99.90
50556;DHT22;36508;52.512;13.450;2023-05-08T08:40:41;13.40;99.90
50556;DHT22;36508;52.512;13.450;2023-05-08T08:43:08;13.40;99.90
50556;DHT22;36508;52.512;13.450;2023-05-08T08:45:35;13.40;99.90
50556;DHT22;36508;52.512;13.450;2023-05-08T08:48:02;13.50;99.90
50556;DHT22;36508;52.512;13.450;2023-05-08T08:50:30;13.50;99.90
50556;DHT22;36508;52.512;13.450;2023-05-08T08:53:15;13.60;99.90
50556;DHT22;36508;52.512;13.450;2023-05-08T08:55:49;13.80;99.90
50556;DHT22;36508;52.512;13.450;2023-05-08T09:00:51;13.80;99.90
50556;DHT22;36508;52.512;13.450;2023-05-08T09:03:20;13.90;99.90
50556;DHT22;36508;52.512;13.450;2023-05-08T09:05:46;14.00;99.90
50556;DHT22;36508;52.512;13.450;2023-05-08T09:08:23;14.10;99.90
50556;DHT22;36508;52.512;13.450;2023-05-08T09:10:50;14.30;99.90
50556;DHT22;36508;52.512;13.450;2023-05-08T09:13:17;14.30;99.90
50556;DHT22;36508;52.512;13.450;2023-05-08T09:15:43;14.40;99.90
50556;DHT22;36508;52.512;13.450;2023-05-08T09:18:09;14.40;99.90
50556;DHT22;36508;52.512;13.450;2023-05-08T09:20:34;14.50;99.90
50556;DHT22;36508;52.512;13.450;2023-05-08T09:23:00;14.60;99.90
50556;DHT22;36508;52.512;13.450;2023-05-08T09:25:43;14.60;99.90
50556;DHT22;36508;52.512;13.450;2023-05-08T09:28:29;14.70;99.90
50556;DHT22;36508;52.512;13.450;2023-05-08T09:30:56;14.70;99.90
50556;DHT22;36508;52.512;13.450;2023-05-08T09:33:27;14.90;99.90
50556;DHT22;36508;52.512;13.450;2023-05-08T09:35:53;15.00;99.90
50556;DHT22;36508;52.512;13.450;2023-05-08T09:41:09;15.20;99.90
50556;DHT22;36508;52.512;13.450;2023-05-08T09:43:35;15.20;99.90
50556;DHT22;36508;52.512;13.450;2023-05-08T09:48:51;15.60;99.90
50556;DHT22;36508;52.512;13.450;2023-05-08T09:51:17;15.70;99.90
50556;DHT22;36508;52.512;13.450;2023-05-08T09:53:43;15.90;99.90
50556;DHT22;36508;52.512;13.450;2023-05-08T09:56:09;16.10;99.90
50556;DHT22;36508;52.512;13.450;2023-05-08T09:58:42;16.10;99.90
50556;DHT22;36508;52.512;13.450;2023-05-08T10:01:33;16.10;99.40
50556;DHT22;36508;52.512;13.450;2023-05-08T10:03:59;16.40;99.90
50556;DHT22;36508;52.512;13.450;2023-05-08T10:06:26;16.40;99.30
50556;DHT22;36508;52.512;13.450;2023-05-08T10:09:12;16.50;99.40
50556;DHT22;36508;52.512;13.450;2023-05-08T10:11:57;16.40;98.00
50556;DHT22;36508;52.512;13.450;2023-05-08T10:14:23;16.50;97.70
50556;DHT22;36508;52.512;13.450;2023-05-08T10:16:51;16.60;96.90
50556;DHT22;36508;52.512;13.450;2023-05-08T10:19:21;16.80;96.90
50556;DHT22;36508;52.512;13.450;2023-05-08T10:21:54;17.00;96.40
50556;DHT22;36508;52.512;13.450;2023-05-08T10:24:26;17.20;95.70
50556;DHT22;36508;52.512;13.450;2023-05-08T10:27:10;17.60;95.70
50556;DHT22;36508;52.512;13.450;2023-05-08T10:29:46;17.70;93.80
50556;DHT22;36508;52.512;13.450;2023-05-08T10:32:14;18.10;94.00
50556;DHT22;36508;52.512;13.450;2023-05-08T10:34:43;19.10;92.10
50556;DHT22;36508;52.512;13.450;2023-05-08T10:37:11;22.10;89.40
50556;DHT22;36508;52.512;13.450;2023-05-08T10:39:37;25.00;81.60
50556;DHT22;36508;52.512;13.450;2023-05-08T10:42:04;26.80;68.50
50556;DHT22;36508;52.512;13.450;2023-05-08T10:44:31;28.60;59.20
50556;DHT22;36508;52.512;13.450;2023-05-08T10:47:11;29.50;53.90
50556;DHT22;36508;52.512;13.450;2023-05-08T10:55:27;31.50;47.20
50556;DHT22;36508;52.512;13.450;2023-05-08T11:11:29;32.80;43.80
50556;DHT22;36508;52.512;13.450;2023-05-08T11:19:24;32.50;39.40
50556;DHT22;36508;52.512;13.450;2023-05-08T11:24:57;32.20;38.50
50556;DHT22;36508;52.512;13.450;2023-05-08T11:45:51;33.00;36.50
50556;DHT22;36508;52.512;13.450;2023-05-08T11:48:18;32.70;35.80
50556;DHT22;36508;52.512;13.450;2023-05-08T11:50:45;32.20;35.80
50556;DHT22;36508;52.512;13.450;2023-05-08T11:53:11;31.10;36.40
50556;DHT22;36508;52.512;13.450;2023-05-08T11:55:38;30.80;37.30
50556;DHT22;36508;52.512;13.450;2023-05-08T11:58:11;30.80;37.40
50556;DHT22;36508;52.512;13.450;2023-05-08T12:00:43;29.40;37.70
50556;DHT22;36508;52.512;13.450;2023-05-08T12:03:15;27.60;38.50
50556;DHT22;36508;52.512;13.450;2023-05-08T12:05:41;25.90;39.90
50556;DHT22;36508;52.512;13.450;2023-05-08T12:08:11;24.40;39.80
50556;DHT22;36508;52.512;13.450;2023-05-08T12:10:51;23.60;41.30
50556;DHT22;36508;52.512;13.450;2023-05-08T12:15:51;22.90;43.20
50556;DHT22;36508;52.512;13.450;2023-05-08T12:18:18;22.50;44.30
50556;DHT22;36508;52.512;13.450;2023-05-08T12:20:44;22.70;44.30
50556;DHT22;36508;52.512;13.450;2023-05-08T12:23:10;22.70;44.80
50556;DHT22;36508;52.512;13.450;2023-05-08T12:25:37;22.60;44.70
50556;DHT22;36508;52.512;13.450;2023-05-08T12:28:05;22.70;44.50
50556;DHT22;36508;52.512;13.450;2023-05-08T12:30:31;22.60;43.70
50556;DHT22;36508;52.512;13.450;2023-05-08T12:32:56;22.70;42.70
50556;DHT22;36508;52.512;13.450;2023-05-08T12:35:22;22.70;43.00
50556;DHT22;36508;52.512;13.450;2023-05-08T12:37:49;22.70;43.00
50556;DHT22;36508;52.512;13.450;2023-05-08T12:40:27;22.50;43.60
50556;DHT22;36508;52.512;13.450;2023-05-08T12:42:53;22.50;44.20
50556;DHT22;36508;52.512;13.450;2023-05-08T12:45:32;22.70;44.20
50556;DHT22;36508;52.512;13.450;2023-05-08T12:48:04;23.20;44.00
50556;DHT22;36508;52.512;13.450;2023-05-08T12:50:37;24.00;43.30
50556;DHT22;36508;52.512;13.450;2023-05-08T12:53:16;24.50;44.50
50556;DHT22;36508;52.512;13.450;2023-05-08T12:55:53;24.40;40.90
50556;DHT22;36508;52.512;13.450;2023-05-08T12:58:22;23.90;41.80
50556;DHT22;36508;52.512;13.450;2023-05-08T13:00:50;23.10;40.60
50556;DHT22;36508;52.512;13.450;2023-05-08T13:03:27;22.60;42.10
50556;DHT22;36508;52.512;13.450;2023-05-08T13:05:54;22.40;42.70
50556;DHT22;36508;52.512;13.450;2023-05-08T13:08:29;22.30;43.90
50556;DHT22;36508;52.512;13.450;2023-05-08T13:10:56;22.20;43.60
50556;DHT22;36508;52.512;13.450;2023-05-08T13:13:33;22.10;43.80
50556;DHT22;36508;52.512;13.450;2023-05-08T13:16:02;22.30;43.80
50556;DHT22;36508;52.512;13.450;2023-05-08T13:18:28;22.50;44.10
50556;DHT22;36508;52.512;13.450;2023-05-08T13:20:55;22.50;43.90
50556;DHT22;36508;52.512;13.450;2023-05-08T13:23:21;22.50;41.80
50556;DHT22;36508;52.512;13.450;2023-05-08T13:25:48;22.40;42.20
50556;DHT22;36508;52.512;13.450;2023-05-08T13:28:14;22.60;43.10
50556;DHT22;36508;52.512;13.450;2023-05-08T13:30:40;22.80;42.50
50556;DHT22;36508;52.512;13.450;2023-05-08T13:33:06;23.10;42.40
50556;DHT22;36508;52.512;13.450;2023-05-08T13:35:32;23.30;42.20
50556;DHT22;36508;52.512;13.450;2023-05-08T13:37:58;23.10;42.20
50556;DHT22;36508;52.512;13.450;2023-05-08T13:40:25;22.70;42.80
50556;DHT22;36508;52.512;13.450;2023-05-08T13:42:51;22.80;43.70
50556;DHT22;36508;52.512;13.450;2023-05-08T13:45:17;22.70;42.80
50556;DHT22;36508;52.512;13.450;2023-05-08T13:47:46;22.60;44.10
50556;DHT22;36508;52.512;13.450;2023-05-08T13:50:14;22.60;43.80
50556;DHT22;36508;52.512;13.450;2023-05-08T13:52:40;22.50;43.60
50556;DHT22;36508;52.512;13.450;2023-05-08T13:55:08;22.80;44.70
50556;DHT22;36508;52.512;13.450;2023-05-08T13:57:34;23.60;41.80
50556;DHT22;36508;52.512;13.450;2023-05-08T14:00:00;23.70;40.80
50556;DHT22;36508;52.512;13.450;2023-05-08T14:02:26;23.60;41.00
50556;DHT22;36508;52.512;13.450;2023-05-08T14:04:52;23.40;41.10
50556;DHT22;36508;52.512;13.450;2023-05-08T14:07:18;23.30;42.20
50556;DHT22;36508;52.512;13.450;2023-05-08T14:09:44;23.00;42.50
50556;DHT22;36508;52.512;13.450;2023-05-08T14:12:10;22.80;43.00
50556;DHT22;36508;52.512;13.450;2023-05-08T14:14:36;22.70;43.50
50556;DHT22;36508;52.512;13.450;2023-05-08T14:17:03;22.60;42.70
50556;DHT22;36508;52.512;13.450;2023-05-08T14:19:29;22.00;42.50
50556;DHT22;36508;52.512;13.450;2023-05-08T14:21:55;22.00;42.80
50556;DHT22;36508;52.512;13.450;2023-05-08T14:24:21;22.10;42.80
50556;DHT22;36508;52.512;13.450;2023-05-08T14:26:46;22.20;43.00
50556;DHT22;36508;52.512;13.450;2023-05-08T14:29:12;22.10;42.30
50556;DHT22;36508;52.512;13.450;2023-05-08T14:31:38;22.00;42.50
50556;DHT22;36508;52.512;13.450;2023-05-08T14:34:04;21.90;42.80
50556;DHT22;36508;52.512;13.450;2023-05-08T14:36:29;21.90;42.90
50556;DHT22;36508;52.512;13.450;2023-05-08T14:38:55;22.00;43.40
50556;DHT22;36508;52.512;13.450;2023-05-08T14:41:21;21.50;43.40
50556;DHT22;36508;52.512;13.450;2023-05-08T14:43:47;21.30;43.40
50556;DHT22;36508;52.512;13.450;2023-05-08T14:46:15;21.40;43.90
50556;DHT22;36508;52.512;13.450;2023-05-08T14:48:41;21.70;43.60
50556;DHT22;36508;52.512;13.450;2023-05-08T14:51:07;21.80;42.50
50556;DHT22;36508;52.512;13.450;2023-05-08T14:53:32;21.70;42.30
50556;DHT22;36508;52.512;13.450;2023-05-08T14:55:58;21.80;41.70
50556;DHT22;36508;52.512;13.450;2023-05-08T14:58:24;21.70;41.70
50556;DHT22;36508;52.512;13.450;2023-05-08T15:00:50;21.80;41.40
50556;DHT22;36508;52.512;13.450;2023-05-08T15:03:15;22.10;41.80
50556;DHT22;36508;52.512;13.450;2023-05-08T15:05:41;22.10;41.60
50556;DHT22;36508;52.512;13.450;2023-05-08T15:08:07;22.30;42.10
50556;DHT22;36508;52.512;13.450;2023-05-08T15:10:34;22.50;42.80
50556;DHT22;36508;52.512;13.450;2023-05-08T15:12:59;22.70;43.10
50556;DHT22;36508;52.512;13.450;2023-05-08T15:15:25;22.80;43.00
50556;DHT22;36508;52.512;13.450;2023-05-08T15:17:51;22.70;43.60
50556;DHT22;36508;52.512;13.450;2023-05-08T15:20:16;22.70;43.60
50556;DHT22;36508;52.512;13.450;2023-05-08T15:22:42;22.80;44.30
50556;DHT22;36508;52.512;13.450;2023-05-08T15:25:08;22.90;43.50
50556;DHT22;36508;52.512;13.450;2023-05-08T15:27:34;22.90;43.80
50556;DHT22;36508;52.512;13.450;2023-05-08T15:29:59;23.10;44.40
50556;DHT22;36508;52.512;13.450;2023-05-08T15:32:25;23.50;43.70
50556;DHT22;36508;52.512;13.450;2023-05-08T15:34:51;24.00;43.40
50556;DHT22;36508;52.512;13.450;2023-05-08T15:37:16;24.30;41.90
50556;DHT22;36508;52.512;13.450;2023-05-08T15:39:42;25.00;42.80
50556;DHT22;36508;52.512;13.450;2023-05-08T15:42:08;25.40;42.10
50556;DHT22;36508;52.512;13.450;2023-05-08T15:44:34;25.80;43.00
50556;DHT22;36508;52.512;13.450;2023-05-08T15:46:59;26.00;41.80
50556;DHT22;36508;52.512;13.450;2023-05-08T15:49:25;26.00;40.80
50556;DHT22;36508;52.512;13.450;2023-05-08T15:51:52;25.90;40.80
50556;DHT22;36508;52.512;13.450;2023-05-08T15:54:17;25.40;41.50
50556;DHT22;36508;52.512;13.450;2023-05-08T15:56:43;25.10;41.50
50556;DHT22;36508;52.512;13.450;2023-05-08T15:59:09;24.90;41.40
50556;DHT22;36508;52.512;13.450;2023-05-08T16:01:34;24.90;42.10
50556;DHT22;36508;52.512;13.450;2023-05-08T16:04:00;24.90;44.00
50556;DHT22;36508;52.512;13.450;2023-05-08T16:06:26;25.10;42.50
50556;DHT22;36508;52.512;13.450;2023-05-08T16:08:51;24.90;42.20
50556;DHT22;36508;52.512;13.450;2023-05-08T16:11:17;24.50;44.00
50556;DHT22;36508;52.512;13.450;2023-05-08T16:13:42;24.50;43.00
50556;DHT22;36508;52.512;13.450;2023-05-08T16:16:08;23.80;43.50
50556;DHT22;36508;52.512;13.450;2023-05-08T16:18:34;23.50;43.70
50556;DHT22;36508;52.512;13.450;2023-05-08T16:20:59;23.30;43.60
50556;DHT22;36508;52.512;13.450;2023-05-08T16:23:25;22.80;44.50
50556;DHT22;36508;52.512;13.450;2023-05-08T16:25:51;22.30;44.40
50556;DHT22;36508;52.512;13.450;2023-05-08T16:28:17;22.00;45.60
50556;DHT22;36508;52.512;13.450;2023-05-08T16:30:42;21.60;45.60
50556;DHT22;36508;52.512;13.450;2023-05-08T16:33:08;21.40;46.10
50556;DHT22;36508;52.512;13.450;2023-05-08T16:35:34;21.40;46.30
50556;DHT22;36508;52.512;13.450;2023-05-08T16:38:00;21.00;46.30
50556;DHT22;36508;52.512;13.450;2023-05-08T16:40:30;21.30;45.60
50556;DHT22;36508;52.512;13.450;2023-05-08T16:42:55;21.20;45.60
50556;DHT22;36508;52.512;13.450;2023-05-08T16:45:21;21.30;46.40
50556;DHT22;36508;52.512;13.450;2023-05-08T16:47:47;21.50;46.70
50556;DHT22;36508;52.512;13.450;2023-05-08T16:50:12;21.60;47.20
50556;DHT22;36508;52.512;13.450;2023-05-08T16:52:38;21.70;47.40